KHST

Homestead ARB Airport

Homestead, Florida, USA
METAR KHST 170256Z AUTO 08009G18KT 10SM FEW021 28/24 A3008 RMK AO2 SLP189 T02820237 52015 FZRANO VISNO RWY24 $
Observed Flight Rules
Oct-17 @ 02:56 UTC (60 minutes ago) Visual Flight Rules
Wind Visibility Clouds
80° at 9 knots
 Gusting to 18 knots
10 miles
  • Few at 2,100' AGL
Temperatures Readings
Current 28°C / 82°F
Dewpoint 24°C / 75°F
Humidity 79%
Altimeter 30.08" Hg
Pressure 1018.9 hPa
Elevation 2
METAR KHST 170256Z AUTO 08009G18KT 10SM FEW021 28/24 A3008 RMK AO2 SLP189 T02820237 52015 FZRANO VISNO RWY24 $
Observed Flight Rules
Oct-17 @ 02:56 UTC
(60 minutes ago)
VFR
Wind Visibility
80° at 9 knots
 Gusting to 18 knots
10 miles
Clouds
  • Few at 2,100' AGL
Temperature Dewpoint
28°C / 82°F 24°C / 75°F
Humidity Altimeter Pressure
79% 30.08" Hg 1018.9 hPa